createdAt,value
2023-05-09T00:01:14.045Z,11.83
2023-05-09T00:03:43.884Z,11.82
2023-05-09T00:06:13.477Z,11.80
2023-05-09T00:08:41.602Z,11.93
2023-05-09T00:11:09.559Z,11.99
2023-05-09T00:13:37.433Z,11.97
2023-05-09T00:16:06.006Z,11.91
2023-05-09T00:18:34.088Z,11.79
2023-05-09T00:21:04.080Z,11.72
2023-05-09T00:23:32.068Z,11.74
2023-05-09T00:26:00.141Z,11.63
2023-05-09T00:28:28.278Z,11.58
2023-05-09T00:30:56.801Z,11.61
2023-05-09T00:33:26.838Z,11.62
2023-05-09T00:35:54.783Z,11.63
2023-05-09T00:38:24.538Z,11.49
2023-05-09T00:40:52.348Z,11.43
2023-05-09T00:43:20.107Z,11.52
2023-05-09T00:45:48.624Z,11.57
2023-05-09T00:48:17.213Z,11.53
2023-05-09T00:50:45.148Z,11.44
2023-05-09T00:53:12.943Z,11.40
2023-05-09T00:55:42.214Z,11.19
2023-05-09T00:58:10.065Z,11.12
2023-05-09T01:00:38.096Z,11.13
2023-05-09T01:03:06.468Z,11.20
2023-05-09T01:05:45.205Z,11.12
2023-05-09T01:08:22.799Z,11.11
2023-05-09T01:10:59.615Z,11.19
2023-05-09T01:13:33.161Z,11.25
2023-05-09T01:16:06.379Z,11.22
2023-05-09T01:18:41.355Z,11.17
2023-05-09T01:21:12.863Z,11.23
2023-05-09T01:24:10.400Z,11.13
2023-05-09T01:26:46.563Z,11.12
2023-05-09T01:29:36.161Z,11.11
2023-05-09T01:32:07.113Z,10.98
2023-05-09T01:34:36.083Z,10.93
2023-05-09T01:37:06.682Z,10.82
2023-05-09T01:39:37.142Z,10.76
2023-05-09T01:42:08.300Z,10.95
2023-05-09T01:44:40.976Z,10.97
2023-05-09T01:47:09.775Z,11.09
2023-05-09T01:49:39.702Z,10.93
2023-05-09T01:52:10.001Z,10.69
2023-05-09T01:54:40.139Z,10.64
2023-05-09T01:57:09.152Z,10.73
2023-05-09T01:59:42.127Z,10.90
2023-05-09T02:02:10.495Z,10.94
2023-05-09T02:04:38.946Z,10.93
2023-05-09T02:07:08.060Z,10.90
2023-05-09T02:09:35.941Z,10.80
2023-05-09T02:12:04.544Z,10.73
2023-05-09T02:14:32.906Z,10.68
2023-05-09T02:17:06.300Z,10.71
2023-05-09T02:19:35.306Z,10.69
2023-05-09T02:22:04.815Z,10.66
2023-05-09T02:24:34.153Z,10.77
2023-05-09T02:27:03.671Z,10.78
2023-05-09T02:29:39.865Z,10.68
2023-05-09T02:32:11.304Z,10.33
2023-05-09T02:34:40.404Z,10.22
2023-05-09T02:37:08.848Z,10.20
2023-05-09T02:39:37.056Z,10.15
2023-05-09T02:42:07.926Z,10.13
2023-05-09T02:44:36.229Z,9.95
2023-05-09T02:47:05.062Z,9.95
2023-05-09T02:49:34.369Z,10.12
2023-05-09T02:52:04.121Z,10.20
2023-05-09T02:54:31.895Z,10.28
2023-05-09T02:57:00.142Z,10.33
2023-05-09T02:59:28.235Z,10.35
2023-05-09T03:01:57.265Z,10.37
2023-05-09T03:04:25.829Z,10.46
2023-05-09T03:06:55.153Z,10.42
2023-05-09T03:09:23.462Z,10.54
2023-05-09T03:11:51.466Z,10.50
2023-05-09T03:14:19.294Z,10.56
2023-05-09T03:16:47.065Z,10.61
2023-05-09T03:19:23.113Z,10.65
2023-05-09T03:21:50.972Z,10.67
2023-05-09T03:24:20.294Z,10.57
2023-05-09T03:26:48.690Z,10.64
2023-05-09T03:29:16.597Z,10.28
2023-05-09T03:31:44.447Z,10.41
2023-05-09T03:34:15.235Z,10.46
2023-05-09T03:36:44.490Z,10.30
2023-05-09T03:39:14.150Z,10.08
2023-05-09T03:41:46.090Z,9.54
2023-05-09T03:44:14.364Z,9.24
2023-05-09T03:46:42.195Z,9.10
2023-05-09T03:49:10.562Z,9.02
2023-05-09T03:51:39.949Z,9.28
2023-05-09T03:54:13.412Z,9.62
2023-05-09T03:56:41.651Z,9.74
2023-05-09T03:59:11.604Z,9.86
2023-05-09T04:01:40.935Z,9.85
2023-05-09T04:04:09.536Z,9.78
2023-05-09T04:06:37.906Z,9.67
2023-05-09T04:09:07.926Z,9.82
2023-05-09T04:11:35.704Z,9.90
2023-05-09T04:14:07.108Z,10.01
2023-05-09T04:16:38.299Z,10.07
2023-05-09T04:19:07.165Z,9.98
2023-05-09T04:21:36.555Z,9.92
2023-05-09T04:24:05.818Z,9.54
2023-05-09T04:26:39.321Z,9.58
2023-05-09T04:29:10.459Z,9.87
2023-05-09T04:31:39.758Z,10.08
2023-05-09T04:34:09.355Z,10.31
2023-05-09T04:36:39.285Z,10.36
2023-05-09T04:39:08.738Z,10.55
2023-05-09T04:41:37.730Z,10.66
2023-05-09T04:44:06.233Z,10.75
2023-05-09T04:46:34.208Z,10.73
2023-05-09T04:49:03.731Z,10.74
2023-05-09T04:51:31.955Z,10.85
2023-05-09T04:54:00.197Z,11.02
2023-05-09T04:56:33.064Z,11.12
2023-05-09T04:59:03.815Z,11.05
2023-05-09T05:01:31.991Z,11.23
2023-05-09T05:04:01.058Z,11.33
2023-05-09T05:06:32.892Z,11.30
2023-05-09T05:09:01.335Z,11.22
2023-05-09T05:11:32.387Z,11.45
2023-05-09T05:14:00.611Z,11.37
2023-05-09T05:16:28.536Z,11.38
2023-05-09T05:18:56.428Z,11.52
2023-05-09T05:21:24.340Z,11.57
2023-05-09T05:23:53.891Z,11.81
2023-05-09T05:26:22.216Z,11.43
2023-05-09T05:28:55.332Z,11.81
2023-05-09T05:31:27.315Z,11.76
2023-05-09T05:33:57.775Z,12.23
2023-05-09T05:36:25.813Z,12.02
2023-05-09T05:38:54.900Z,12.25
2023-05-09T05:41:23.428Z,12.25
2023-05-09T05:43:54.107Z,12.60
2023-05-09T05:46:22.538Z,12.71
2023-05-09T05:48:50.364Z,12.40
2023-05-09T05:51:18.212Z,12.86
2023-05-09T05:53:46.855Z,12.94
2023-05-09T05:56:16.045Z,13.32
2023-05-09T05:58:43.873Z,13.41
2023-05-09T06:01:12.011Z,13.26
2023-05-09T06:03:39.916Z,13.43
2023-05-09T06:06:08.477Z,13.35
2023-05-09T06:08:36.273Z,13.46
2023-05-09T06:11:05.812Z,13.68
2023-05-09T06:13:35.078Z,13.58
2023-05-09T06:16:18.733Z,13.81
2023-05-09T06:18:49.928Z,13.97
2023-05-09T06:21:17.702Z,13.87
2023-05-09T06:23:57.741Z,14.18
2023-05-09T06:26:33.464Z,14.01
2023-05-09T06:29:02.652Z,14.29
2023-05-09T06:31:31.358Z,14.47
2023-05-09T06:33:59.232Z,14.28
2023-05-09T06:36:26.985Z,14.44
2023-05-09T06:38:54.721Z,14.61
2023-05-09T06:41:22.555Z,14.58
2023-05-09T06:43:50.367Z,14.80
2023-05-09T06:46:19.626Z,14.84
2023-05-09T06:48:47.476Z,14.78
2023-05-09T06:51:15.486Z,14.74
2023-05-09T06:53:43.251Z,14.73
2023-05-09T06:56:12.742Z,14.81
2023-05-09T06:58:40.807Z,14.72
2023-05-09T07:01:08.717Z,14.30
2023-05-09T07:03:37.921Z,14.41
2023-05-09T07:06:05.980Z,14.51
2023-05-09T07:08:33.743Z,14.74
2023-05-09T07:11:01.650Z,14.75
2023-05-09T07:13:29.392Z,14.85
2023-05-09T07:15:57.687Z,14.94
2023-05-09T07:18:25.507Z,15.07
2023-05-09T07:20:54.707Z,15.15
2023-05-09T07:23:22.499Z,15.31
2023-05-09T07:25:50.290Z,15.47
2023-05-09T07:28:19.137Z,15.33
2023-05-09T07:30:46.951Z,15.25
2023-05-09T07:33:14.771Z,15.59
2023-05-09T07:35:42.582Z,16.18
2023-05-09T07:38:12.116Z,16.52
2023-05-09T07:40:39.904Z,16.10
2023-05-09T07:43:07.711Z,16.00
2023-05-09T07:45:36.542Z,16.26
2023-05-09T07:48:04.607Z,16.50
2023-05-09T07:50:32.492Z,16.60
2023-05-09T07:53:00.448Z,16.71
2023-05-09T07:55:29.616Z,16.93
2023-05-09T07:57:57.507Z,17.06
2023-05-09T08:00:25.723Z,17.01
2023-05-09T08:02:54.009Z,16.95
2023-05-09T08:05:22.069Z,17.04
2023-05-09T08:07:49.824Z,17.22
2023-05-09T08:10:17.630Z,17.09
2023-05-09T08:12:46.826Z,17.02
2023-05-09T08:15:14.755Z,16.72
2023-05-09T08:17:42.724Z,16.49
2023-05-09T08:20:11.965Z,16.44
2023-05-09T08:22:41.171Z,16.00
2023-05-09T08:25:09.837Z,15.94
2023-05-09T08:27:37.586Z,16.19
2023-05-09T08:30:08.181Z,16.56
2023-05-09T08:32:36.125Z,16.61
2023-05-09T08:35:04.042Z,16.79
2023-05-09T08:37:31.881Z,17.04
2023-05-09T08:39:59.653Z,17.19
2023-05-09T08:42:28.540Z,17.34
2023-05-09T08:44:56.445Z,17.44
2023-05-09T08:47:26.370Z,16.51
2023-05-09T08:49:54.656Z,16.93
2023-05-09T08:52:22.922Z,16.77
2023-05-09T08:54:51.484Z,16.73
2023-05-09T08:57:19.452Z,16.93
2023-05-09T08:59:47.331Z,17.31
2023-05-09T09:02:15.926Z,17.31
2023-05-09T09:04:46.077Z,17.63
2023-05-09T09:07:16.218Z,17.77
2023-05-09T09:09:46.985Z,17.87
2023-05-09T09:12:16.388Z,17.95
2023-05-09T09:14:48.967Z,18.04
2023-05-09T09:17:20.636Z,17.72
2023-05-09T09:19:51.220Z,17.79
2023-05-09T09:22:20.812Z,17.62
2023-05-09T09:24:48.773Z,18.10
2023-05-09T09:27:16.861Z,18.28
2023-05-09T09:29:44.622Z,18.23
2023-05-09T09:32:12.479Z,18.62
2023-05-09T09:34:40.417Z,18.89
2023-05-09T09:37:09.587Z,19.11
2023-05-09T09:39:37.321Z,18.56
2023-05-09T09:42:12.128Z,18.83
2023-05-09T09:44:39.885Z,18.76
2023-05-09T09:47:11.461Z,18.81
2023-05-09T09:49:46.314Z,19.07
2023-05-09T09:52:24.011Z,19.38
2023-05-09T09:54:52.126Z,19.11
2023-05-09T09:57:35.059Z,18.98
2023-05-09T10:00:06.018Z,18.92
2023-05-09T10:02:34.020Z,19.13
2023-05-09T10:05:08.417Z,19.38
2023-05-09T10:07:37.534Z,18.80
2023-05-09T10:10:06.860Z,19.23
2023-05-09T10:12:35.577Z,19.42
2023-05-09T10:15:05.395Z,20.08
2023-05-09T10:17:33.581Z,20.36
2023-05-09T10:20:04.190Z,20.37
2023-05-09T10:22:34.316Z,20.58
2023-05-09T10:25:07.336Z,20.56
2023-05-09T10:27:37.183Z,20.69
2023-05-09T10:30:10.423Z,20.70
2023-05-09T10:32:50.732Z,20.15
2023-05-09T10:35:20.441Z,19.70
2023-05-09T10:37:49.310Z,19.64
2023-05-09T10:40:20.485Z,20.11
2023-05-09T10:42:51.252Z,20.58
2023-05-09T10:45:21.014Z,20.64
2023-05-09T10:47:50.693Z,21.23
2023-05-09T10:50:19.421Z,21.52
2023-05-09T10:53:06.201Z,21.25
2023-05-09T10:55:50.773Z,21.41
2023-05-09T10:58:24.820Z,21.65
2023-05-09T11:00:55.277Z,20.91
2023-05-09T11:03:25.861Z,21.22
2023-05-09T11:05:55.762Z,21.74
2023-05-09T11:08:26.217Z,21.47
2023-05-09T11:10:57.142Z,21.58
2023-05-09T11:13:27.420Z,21.70
2023-05-09T11:16:12.248Z,21.44
2023-05-09T11:18:53.734Z,21.61
2023-05-09T11:21:22.295Z,22.26
2023-05-09T11:23:52.410Z,22.44
2023-05-09T11:26:30.485Z,22.64
2023-05-09T11:29:00.786Z,22.90
2023-05-09T11:31:28.626Z,22.65
2023-05-09T11:34:04.815Z,21.98
2023-05-09T11:36:33.814Z,22.55
2023-05-09T11:39:05.262Z,23.00
2023-05-09T11:41:40.609Z,22.54
2023-05-09T11:44:19.087Z,22.35
2023-05-09T11:46:47.862Z,22.93
2023-05-09T11:49:17.031Z,22.46
2023-05-09T11:51:44.900Z,22.87
2023-05-09T11:54:14.824Z,22.81
2023-05-09T11:56:44.163Z,22.57
2023-05-09T11:59:14.669Z,22.71
2023-05-09T12:01:42.688Z,22.48
2023-05-09T12:04:10.613Z,22.58
2023-05-09T12:06:38.510Z,22.81
2023-05-09T12:09:06.628Z,23.16
2023-05-09T12:11:37.027Z,23.44
2023-05-09T12:14:06.383Z,23.75
2023-05-09T12:16:34.275Z,23.51
2023-05-09T12:19:02.212Z,23.75
2023-05-09T12:21:29.995Z,23.33
2023-05-09T12:23:58.137Z,22.92
2023-05-09T12:26:27.073Z,22.79
2023-05-09T12:28:55.316Z,22.89
2023-05-09T12:31:24.680Z,22.90
2023-05-09T12:33:52.808Z,23.09
2023-05-09T12:36:20.685Z,23.37
2023-05-09T12:38:55.192Z,22.00
2023-05-09T12:41:37.022Z,22.68
2023-05-09T12:44:10.006Z,23.15
2023-05-09T12:46:39.200Z,22.64
2023-05-09T12:49:07.223Z,23.38
2023-05-09T12:51:34.998Z,24.10
2023-05-09T12:54:05.424Z,24.55
2023-05-09T12:56:35.811Z,23.25
2023-05-09T12:59:03.599Z,23.04
2023-05-09T13:01:31.709Z,23.65
2023-05-09T13:04:06.198Z,23.71
2023-05-09T13:06:35.666Z,24.07
2023-05-09T13:09:06.279Z,23.87
2023-05-09T13:11:34.354Z,23.99
2023-05-09T13:14:04.151Z,23.78
2023-05-09T13:16:32.032Z,24.20
2023-05-09T13:19:01.509Z,24.52
2023-05-09T13:21:30.720Z,24.66
2023-05-09T13:23:58.568Z,24.62
2023-05-09T13:26:27.241Z,24.67
2023-05-09T13:28:55.143Z,24.29
2023-05-09T13:31:23.492Z,24.04
2023-05-09T13:33:52.121Z,23.51
2023-05-09T13:36:20.483Z,23.68
2023-05-09T13:38:49.601Z,23.71
2023-05-09T13:41:20.785Z,23.77
2023-05-09T13:43:48.667Z,23.44
2023-05-09T13:46:16.531Z,23.34
2023-05-09T13:48:44.556Z,23.15
2023-05-09T13:51:12.535Z,23.50
2023-05-09T13:53:40.499Z,23.25
2023-05-09T13:56:10.293Z,23.83
2023-05-09T13:58:38.140Z,23.73
2023-05-09T14:01:06.414Z,23.72
2023-05-09T14:03:34.448Z,24.14
2023-05-09T14:06:02.339Z,23.80
2023-05-09T14:08:30.224Z,24.01
2023-05-09T14:10:57.979Z,23.79
2023-05-09T14:13:27.340Z,23.84
2023-05-09T14:15:55.170Z,23.04
2023-05-09T14:18:23.208Z,23.03
2023-05-09T14:20:52.294Z,22.83
2023-05-09T14:23:22.292Z,22.67
2023-05-09T14:25:50.319Z,23.22
2023-05-09T14:28:18.313Z,23.97
2023-05-09T14:30:47.868Z,24.58
2023-05-09T14:33:15.977Z,24.89
2023-05-09T14:35:43.805Z,24.46
2023-05-09T14:38:13.106Z,24.78
2023-05-09T14:40:41.084Z,24.63
2023-05-09T14:43:09.590Z,23.68
2023-05-09T14:45:37.671Z,23.77
2023-05-09T14:48:07.066Z,23.95
2023-05-09T14:50:35.035Z,23.92
2023-05-09T14:53:03.712Z,23.41
2023-05-09T14:55:31.676Z,23.45
2023-05-09T14:57:59.543Z,23.68
2023-05-09T15:00:28.436Z,23.97
2023-05-09T15:02:56.819Z,24.17
2023-05-09T15:05:26.292Z,23.92
2023-05-09T15:07:54.253Z,23.57
2023-05-09T15:10:22.191Z,23.17
2023-05-09T15:12:50.069Z,22.96
2023-05-09T15:15:20.048Z,22.70
2023-05-09T15:17:48.451Z,22.48
2023-05-09T15:20:17.691Z,22.42
2023-05-09T15:22:48.759Z,22.82
2023-05-09T15:25:17.433Z,22.88
2023-05-09T15:27:45.430Z,22.93
2023-05-09T15:30:14.234Z,22.47
2023-05-09T15:32:42.259Z,22.51
2023-05-09T15:35:10.514Z,22.67
2023-05-09T15:37:38.705Z,22.58
2023-05-09T15:40:09.389Z,22.82
2023-05-09T15:42:38.635Z,22.57
2023-05-09T15:45:07.333Z,22.52
2023-05-09T15:47:35.276Z,22.44
2023-05-09T15:50:03.258Z,22.34
2023-05-09T15:52:31.203Z,22.46
2023-05-09T15:54:59.614Z,22.58
2023-05-09T15:57:28.879Z,22.48
2023-05-09T15:59:56.771Z,22.63
2023-05-09T16:02:24.767Z,22.68
2023-05-09T16:04:52.744Z,22.44
2023-05-09T16:07:20.973Z,22.21
2023-05-09T16:09:48.792Z,21.70
2023-05-09T16:12:16.621Z,21.94
2023-05-09T16:14:45.756Z,21.72
2023-05-09T16:17:13.513Z,21.85
2023-05-09T16:19:41.307Z,21.68
2023-05-09T16:22:09.088Z,21.42
2023-05-09T16:24:37.358Z,21.48
2023-05-09T16:27:05.134Z,21.25
2023-05-09T16:29:32.888Z,21.16
2023-05-09T16:32:02.220Z,21.09
2023-05-09T16:34:30.278Z,20.95
2023-05-09T16:36:58.133Z,20.93
2023-05-09T16:39:27.904Z,20.87
2023-05-09T16:41:56.295Z,20.84
2023-05-09T16:44:25.132Z,20.52
2023-05-09T16:46:53.156Z,20.69
2023-05-09T16:49:22.295Z,20.66
2023-05-09T16:51:50.091Z,20.56
2023-05-09T16:54:17.820Z,20.76
2023-05-09T16:56:45.581Z,20.77
2023-05-09T16:59:13.365Z,20.78
2023-05-09T17:01:41.899Z,20.88
2023-05-09T17:04:09.907Z,20.81
2023-05-09T17:06:39.110Z,20.75
2023-05-09T17:09:07.024Z,20.65
2023-05-09T17:11:34.838Z,20.49
2023-05-09T17:14:03.307Z,20.36
2023-05-09T17:16:31.137Z,20.16
2023-05-09T17:18:59.261Z,20.03
2023-05-09T17:21:27.732Z,19.91
2023-05-09T17:23:56.936Z,19.80
2023-05-09T17:26:25.848Z,19.78
2023-05-09T17:28:53.728Z,19.61
2023-05-09T17:31:21.598Z,19.50
2023-05-09T17:33:49.512Z,19.48
2023-05-09T17:36:17.334Z,19.46
2023-05-09T17:38:45.125Z,19.32
2023-05-09T17:41:14.342Z,19.28
2023-05-09T17:43:42.141Z,19.17
2023-05-09T17:46:10.469Z,18.95
2023-05-09T17:48:38.737Z,18.96
2023-05-09T17:51:07.083Z,18.97
2023-05-09T17:53:34.890Z,19.01
2023-05-09T17:56:02.958Z,19.00
2023-05-09T17:58:32.122Z,18.88
2023-05-09T18:00:59.937Z,18.78
2023-05-09T18:03:28.647Z,18.72
2023-05-09T18:05:57.131Z,18.68
2023-05-09T18:08:25.024Z,18.53
2023-05-09T18:10:54.506Z,18.44
2023-05-09T18:13:22.514Z,18.49
2023-05-09T18:15:53.969Z,18.44
2023-05-09T18:18:22.284Z,18.35
2023-05-09T18:20:50.253Z,18.22
2023-05-09T18:23:18.076Z,18.18
2023-05-09T18:25:45.874Z,18.16
2023-05-09T18:28:13.630Z,18.00
2023-05-09T18:30:41.473Z,17.92
2023-05-09T18:33:10.629Z,17.88
2023-05-09T18:35:38.400Z,17.86
2023-05-09T18:38:06.261Z,17.82
2023-05-09T18:40:34.031Z,17.84
2023-05-09T18:43:01.832Z,17.82
2023-05-09T18:45:30.787Z,17.71
2023-05-09T18:47:58.694Z,17.64
2023-05-09T18:50:27.863Z,17.59
2023-05-09T18:52:55.950Z,17.60
2023-05-09T18:55:24.066Z,17.66
2023-05-09T18:57:51.953Z,17.71
2023-05-09T19:00:19.864Z,17.62
2023-05-09T19:02:47.629Z,17.53
2023-05-09T19:05:15.781Z,17.52
2023-05-09T19:07:44.947Z,17.50
2023-05-09T19:10:13.168Z,17.40
2023-05-09T19:12:41.607Z,17.32
2023-05-09T19:15:10.880Z,17.27
2023-05-09T19:17:38.966Z,17.25
2023-05-09T19:20:08.374Z,17.17
2023-05-09T19:22:36.257Z,17.21
2023-05-09T19:25:05.937Z,17.21
2023-05-09T19:27:33.825Z,17.22
2023-05-09T19:30:01.869Z,17.23
2023-05-09T19:32:30.340Z,17.11
2023-05-09T19:34:58.689Z,17.16
2023-05-09T19:37:26.587Z,17.04
2023-05-09T19:39:54.360Z,17.12
2023-05-09T19:42:23.479Z,17.07
2023-05-09T19:44:52.377Z,17.07
2023-05-09T19:47:20.255Z,17.14
2023-05-09T19:49:48.024Z,17.11
2023-05-09T19:52:15.761Z,17.01
2023-05-09T19:54:43.542Z,17.05
2023-05-09T19:57:12.376Z,16.96
2023-05-09T19:59:41.495Z,16.97
2023-05-09T20:02:09.670Z,17.01
2023-05-09T20:04:37.829Z,16.96
2023-05-09T20:07:05.921Z,16.94
2023-05-09T20:09:33.669Z,17.02
2023-05-09T20:12:03.450Z,16.89
2023-05-09T20:14:31.748Z,16.69
2023-05-09T20:17:00.870Z,16.84
2023-05-09T20:19:28.813Z,16.94
2023-05-09T20:21:56.692Z,17.03
2023-05-09T20:24:24.463Z,16.94
2023-05-09T20:26:52.266Z,16.67
2023-05-09T20:29:20.154Z,16.52
2023-05-09T20:31:48.297Z,16.49
2023-05-09T20:34:19.574Z,16.37
2023-05-09T20:36:50.753Z,16.17
2023-05-09T20:39:18.713Z,16.12
2023-05-09T20:41:46.770Z,16.15
2023-05-09T20:44:15.785Z,16.17
2023-05-09T20:46:43.541Z,16.12
2023-05-09T20:49:11.547Z,16.13
2023-05-09T20:51:40.790Z,15.88
2023-05-09T20:54:08.562Z,15.62
2023-05-09T20:56:36.373Z,15.41
2023-05-09T20:59:04.635Z,15.11
2023-05-09T21:01:35.598Z,14.85
2023-05-09T21:04:03.997Z,14.83
2023-05-09T21:06:31.854Z,14.56
2023-05-09T21:09:00.945Z,14.38
2023-05-09T21:11:28.773Z,14.00
2023-05-09T21:13:56.516Z,13.91
2023-05-09T21:16:24.274Z,13.68
2023-05-09T21:18:52.054Z,13.58
2023-05-09T21:21:19.809Z,13.51
2023-05-09T21:23:47.617Z,13.41
2023-05-09T21:26:17.158Z,13.41
2023-05-09T21:28:44.919Z,13.31
2023-05-09T21:31:12.715Z,13.21
2023-05-09T21:33:40.651Z,13.27
2023-05-09T21:36:09.129Z,13.11
2023-05-09T21:38:36.896Z,12.97
2023-05-09T21:41:04.715Z,13.07
2023-05-09T21:43:33.867Z,12.99
2023-05-09T21:46:01.676Z,12.81
2023-05-09T21:48:29.593Z,12.65
2023-05-09T21:50:57.367Z,12.73
2023-05-09T21:53:25.411Z,12.66
2023-05-09T21:55:53.210Z,12.74
2023-05-09T21:58:21.008Z,12.84
2023-05-09T22:00:50.127Z,12.82
2023-05-09T22:03:17.974Z,12.92
2023-05-09T22:05:46.065Z,12.93
2023-05-09T22:08:13.872Z,12.85
2023-05-09T22:10:41.902Z,12.89
2023-05-09T22:13:09.769Z,12.74
2023-05-09T22:15:37.697Z,12.86
2023-05-09T22:18:07.095Z,12.90
2023-05-09T22:20:34.950Z,12.90
2023-05-09T22:23:03.172Z,12.80
2023-05-09T22:25:31.124Z,12.81
2023-05-09T22:27:59.088Z,12.80
2023-05-09T22:30:27.111Z,12.93
2023-05-09T22:32:54.958Z,13.02
2023-05-09T22:35:24.461Z,12.93
2023-05-09T22:37:52.381Z,12.74
2023-05-09T22:40:20.263Z,12.70
2023-05-09T22:42:48.143Z,12.72
2023-05-09T22:45:15.954Z,12.79
2023-05-09T22:47:44.527Z,12.60
2023-05-09T22:50:12.940Z,12.63
2023-05-09T22:52:42.206Z,12.62
2023-05-09T22:55:10.355Z,12.66
2023-05-09T22:57:38.124Z,12.61
2023-05-09T23:00:07.251Z,12.62
2023-05-09T23:02:35.124Z,12.76
2023-05-09T23:05:03.297Z,12.82
2023-05-09T23:07:31.212Z,12.94
2023-05-09T23:10:00.525Z,13.00
2023-05-09T23:12:28.292Z,12.91
2023-05-09T23:14:56.076Z,12.92
2023-05-09T23:17:24.389Z,12.80
2023-05-09T23:19:52.232Z,12.75
2023-05-09T23:22:20.065Z,12.75
2023-05-09T23:24:48.050Z,12.72
2023-05-09T23:27:17.146Z,12.81
2023-05-09T23:29:44.897Z,12.71
2023-05-09T23:32:12.622Z,12.82
2023-05-09T23:34:40.382Z,12.82
2023-05-09T23:37:08.384Z,12.81
2023-05-09T23:39:36.209Z,12.76
2023-05-09T23:42:04.066Z,12.74
2023-05-09T23:44:33.183Z,12.76
2023-05-09T23:47:01.847Z,12.78
2023-05-09T23:49:30.158Z,12.72
2023-05-09T23:51:57.954Z,12.78
2023-05-09T23:54:26.895Z,12.74
2023-05-09T23:56:56.319Z,12.72
2023-05-09T23:59:24.127Z,12.76
